TimeEDT,TemperatureF,Dew PointF,Humidity,Sea Level PressureIn,VisibilityMPH,Wind Direction,Wind SpeedMPH,Gust SpeedMPH,PrecipitationIn,Events,Conditions,WindDirDegrees,DateUTC
12:15 AM,58.5,57.9,98,30.20,10.0,SW,4.6,-,N/A,,Clear,230,2013-07-30 04:15:00
12:35 AM,58.1,57.6,98,30.20,10.0,SW,3.5,-,N/A,,Clear,220,2013-07-30 04:35:00
12:55 AM,57.7,57.2,98,30.20,10.0,SW,3.5,-,N/A,,Clear,220,2013-07-30 04:55:00
1:15 AM,58.1,57.6,98,30.20,10.0,SW,4.6,-,N/A,,Clear,220,2013-07-30 05:15:00
1:35 AM,56.3,55.9,99,30.21,10.0,Calm,Calm,-,N/A,,Clear,0,2013-07-30 05:35:00
1:55 AM,57.2,57.2,100,30.21,10.0,WSW,3.5,-,N/A,,Clear,250,2013-07-30 05:55:00
2:14 AM,57.4,57.2,99,30.21,10.0,Calm,Calm,-,N/A,,Clear,0,2013-07-30 06:14:00
2:35 AM,55.8,55.8,100,30.21,10.0,Calm,Calm,-,N/A,,Clear,0,2013-07-30 06:35:00
2:55 AM,56.3,56.3,100,30.20,10.0,Calm,Calm,-,N/A,,Clear,0,2013-07-30 06:55:00
3:14 AM,55.4,55.4,100,30.20,10.0,SE,3.5,-,N/A,,Clear,140,2013-07-30 07:14:00
3:35 AM,54.3,54.3,100,30.20,10.0,Calm,Calm,-,N/A,,Clear,0,2013-07-30 07:35:00
3:55 AM,54.7,54.7,100,30.20,10.0,Calm,Calm,-,N/A,,Clear,0,2013-07-30 07:55:00
4:14 AM,54.7,54.7,100,30.20,10.0,Calm,Calm,-,N/A,,Clear,0,2013-07-30 08:14:00
4:35 AM,54.0,54.0,100,30.20,10.0,Calm,Calm,-,N/A,,Clear,0,2013-07-30 08:35:00
4:55 AM,53.8,53.8,100,30.20,10.0,ESE,3.5,-,N/A,,Clear,110,2013-07-30 08:55:00
5:15 AM,53.1,53.1,100,30.21,10.0,SE,4.6,-,N/A,,Clear,130,2013-07-30 09:15:00
5:35 AM,52.3,52.3,100,30.21,0.8,SE,4.6,-,N/A,,Mostly Cloudy,140,2013-07-30 09:35:00
5:55 AM,52.7,52.7,100,30.22,10.0,SE,3.5,-,N/A,,Scattered Clouds,130,2013-07-30 09:55:00
6:15 AM,52.7,52.7,100,30.22,10.0,SE,3.5,-,N/A,,Clear,140,2013-07-30 10:15:00
6:35 AM,52.7,52.7,100,30.22,10.0,SE,3.5,-,N/A,,Clear,130,2013-07-30 10:35:00
6:55 AM,52.7,52.7,100,30.22,7.0,ESE,4.6,-,N/A,,Scattered Clouds,120,2013-07-30 10:55:00
7:15 AM,52.9,52.9,100,30.23,7.0,SE,3.5,-,N/A,,Scattered Clouds,140,2013-07-30 11:15:00
7:35 AM,54.3,54.3,100,30.23,10.0,ESE,3.5,-,N/A,,Clear,120,2013-07-30 11:35:00
7:55 AM,56.8,56.8,100,30.23,10.0,SE,3.5,-,N/A,,Clear,130,2013-07-30 11:55:00
8:15 AM,58.5,57.7,97,30.23,10.0,ESE,3.5,-,N/A,,Clear,120,2013-07-30 12:15:00
8:34 AM,60.8,59.2,94,30.23,10.0,ESE,3.5,-,N/A,,Clear,120,2013-07-30 12:34:00
8:55 AM,61.5,59.4,93,30.24,10.0,Calm,Calm,-,N/A,,Clear,0,2013-07-30 12:55:00
9:15 AM,62.4,59.0,89,30.23,10.0,SSW,4.6,-,N/A,,Clear,200,2013-07-30 13:15:00
9:34 AM,62.6,58.8,87,30.24,10.0,Calm,Calm,-,N/A,,Clear,0,2013-07-30 13:34:00
9:55 AM,63.7,58.8,84,30.24,10.0,South,4.6,-,N/A,,Mostly Cloudy,190,2013-07-30 13:55:00
10:14 AM,64.0,57.6,79,30.24,10.0,South,4.6,-,N/A,,Overcast,190,2013-07-30 14:14:00
10:35 AM,64.4,56.8,76,30.23,10.0,Calm,Calm,-,N/A,,Scattered Clouds,0,2013-07-30 14:35:00
10:55 AM,64.4,57.4,78,30.24,10.0,Calm,Calm,-,N/A,,Clear,0,2013-07-30 14:55:00
11:14 AM,63.5,57.0,79,30.24,10.0,SW,3.5,-,N/A,,Clear,220,2013-07-30 15:14:00
11:35 AM,63.0,57.9,84,30.24,10.0,Calm,Calm,-,N/A,,Scattered Clouds,0,2013-07-30 15:35:00
11:55 AM,61.7,58.8,90,30.25,10.0,SSW,3.5,-,N/A,Rain,Light Rain,200,2013-07-30 15:55:00
12:14 PM,61.2,59.4,94,30.25,10.0,Calm,Calm,-,N/A,,Mostly Cloudy,0,2013-07-30 16:14:00
12:35 PM,61.0,59.4,94,30.25,10.0,Calm,Calm,-,N/A,,Mostly Cloudy,0,2013-07-30 16:35:00
12:55 PM,61.5,60.1,95,30.24,10.0,SE,4.6,-,N/A,Rain,Light Rain,140,2013-07-30 16:55:00
1:15 PM,61.7,60.3,95,30.24,10.0,SE,4.6,-,N/A,Rain,Light Rain,140,2013-07-30 17:15:00
1:35 PM,62.8,61.3,95,30.23,10.0,SSE,4.6,-,N/A,,Mostly Cloudy,150,2013-07-30 17:35:00
1:55 PM,63.7,60.6,90,30.23,10.0,SSE,4.6,-,N/A,,Scattered Clouds,150,2013-07-30 17:55:00
2:15 PM,66.6,59.2,77,30.22,10.0,South,3.5,-,N/A,,Clear,180,2013-07-30 18:15:00
2:35 PM,69.3,59.4,71,30.22,10.0,WNW,5.8,-,N/A,,Clear,290,2013-07-30 18:35:00
2:54 PM,70.5,58.8,66,30.22,10.0,West,8.1,-,N/A,,Clear,280,2013-07-30 18:54:00
3:15 PM,69.4,57.7,66,30.21,10.0,WSW,8.1,-,N/A,,Clear,240,2013-07-30 19:15:00
3:35 PM,69.8,55.8,61,30.20,10.0,SSW,8.1,-,N/A,,Clear,200,2013-07-30 19:35:00
3:54 PM,70.9,57.7,63,30.20,10.0,SW,9.2,-,N/A,,Clear,230,2013-07-30 19:54:00
4:15 PM,69.8,56.5,63,30.19,10.0,SW,6.9,-,N/A,,Scattered Clouds,230,2013-07-30 20:15:00
4:35 PM,71.6,56.8,60,30.19,10.0,SSW,4.6,-,N/A,,Scattered Clouds,210,2013-07-30 20:35:00
4:55 PM,71.6,56.1,58,30.18,10.0,SSW,6.9,-,N/A,,Clear,210,2013-07-30 20:55:00
5:15 PM,71.8,57.7,61,30.17,10.0,NW,4.6,-,N/A,,Clear,310,2013-07-30 21:15:00
5:34 PM,71.6,55.9,58,30.17,10.0,NW,8.1,-,N/A,,Clear,310,2013-07-30 21:34:00
5:55 PM,70.3,58.1,65,30.17,10.0,WNW,6.9,-,N/A,,Clear,300,2013-07-30 21:55:00
6:15 PM,69.8,58.5,67,30.17,10.0,North,4.6,-,N/A,,Clear,350,2013-07-30 22:15:00
6:34 PM,68.4,58.3,70,30.17,10.0,NNW,4.6,-,N/A,,Clear,340,2013-07-30 22:34:00
6:55 PM,68.0,56.8,67,30.17,10.0,NNW,3.5,-,N/A,,Clear,330,2013-07-30 22:55:00
7:15 PM,68.4,55.0,62,30.17,10.0,NNW,3.5,-,N/A,,Clear,340,2013-07-30 23:15:00
7:35 PM,68.2,54.7,62,30.17,10.0,NNW,3.5,-,N/A,,Clear,330,2013-07-30 23:35:00
7:55 PM,67.1,54.0,63,30.16,10.0,NNW,3.5,-,N/A,,Scattered Clouds,340,2013-07-30 23:55:00
8:15 PM,66.9,54.5,64,30.16,10.0,Calm,Calm,-,N/A,,Clear,0,2013-07-31 00:15:00
8:35 PM,66.4,55.0,67,30.16,10.0,Calm,Calm,-,N/A,,Mostly Cloudy,0,2013-07-31 00:35:00
8:55 PM,66.2,54.7,66,30.15,10.0,Calm,Calm,-,N/A,,Overcast,0,2013-07-31 00:55:00
9:15 PM,66.4,56.8,71,30.15,10.0,Calm,Calm,-,N/A,,Overcast,0,2013-07-31 01:15:00
9:35 PM,65.1,56.7,74,30.15,10.0,Calm,Calm,-,N/A,,Overcast,0,2013-07-31 01:35:00
9:55 PM,64.2,56.7,76,30.15,10.0,Calm,Calm,-,N/A,,Overcast,0,2013-07-31 01:55:00
10:14 PM,63.9,57.4,79,30.15,10.0,Calm,Calm,-,N/A,,Overcast,0,2013-07-31 02:14:00
10:35 PM,62.6,58.1,85,30.15,10.0,SE,3.5,-,N/A,,Mostly Cloudy,140,2013-07-31 02:35:00
10:55 PM,60.8,57.7,90,30.15,10.0,Calm,Calm,-,N/A,,Scattered Clouds,0,2013-07-31 02:55:00
11:14 PM,60.4,57.4,90,30.14,10.0,SSE,3.5,-,N/A,,Clear,160,2013-07-31 03:14:00
11:35 PM,60.3,57.0,89,30.14,10.0,SSE,3.5,-,N/A,,Clear,150,2013-07-31 03:35:00
11:55 PM,60.6,56.3,86,30.14,10.0,SE,3.5,-,N/A,,Clear,140,2013-07-31 03:55:00